Time;durP1;ratioP1;P1;durP2;ratioP2;P2;SDS_P1;SDS_P2;PMS_P1;PMS_P2;Temp;Humidity;BMP_temperature;BMP_pressure;BME280_temperature;BME280_humidity;BME280_pressure;Samples;Min_cycle;Max_cycle;Signal;HPM_P1;HPM_P2
2023/10/24 02:04:27;;;;;;;10.38;4.07;;;;;;;;;;4960004;28;20389;-60
2023/10/24 02:06:54;;;;;;;12.52;4.32;;;;;;;;;;4991984;28;20050;-61
2023/10/24 02:09:21;;;;;;;9.38;4.53;;;;;;;;;;4999784;28;20046;-61
2023/10/24 02:11:47;;;;;;;7.60;4.18;;;;;;;;;;4992109;28;20058;-61
2023/10/24 02:14:14;;;;;;;9.65;3.80;;;;;;;;;;5012994;28;20084;-61
2023/10/24 02:16:41;;;;;;;10.95;4.55;;;;;;;;;;5001785;28;20061;-61
2023/10/24 02:19:08;;;;;;;10.20;4.40;;;;;;;;;;5002114;28;20054;-61
2023/10/24 02:21:36;;;;;;;10.00;4.25;;;;;;;;;;5013582;28;20123;-62
2023/10/24 02:24:03;;;;;;;10.68;4.55;;;;;;;;;;5006588;28;20049;-61
2023/10/24 02:26:30;;;;;;;9.05;4.40;;;;;;;;;;4999319;28;20049;-61
2023/10/24 02:28:57;;;;;;;7.82;3.88;;;;;;;;;;5020332;28;20117;-61
2023/10/24 02:31:24;;;;;;;7.75;3.60;;;;;;;;;;5002790;28;20069;-62
2023/10/24 02:33:51;;;;;;;8.20;3.80;;;;;;;;;;5024483;28;20057;-61
2023/10/24 02:36:18;;;;;;;9.57;3.75;;;;;;;;;;5020775;28;20081;-61
2023/10/24 02:38:46;;;;;;;9.52;3.60;;;;;;;;;;5021637;28;20061;-61
2023/10/24 02:41:12;;;;;;;8.10;3.50;;;;;;;;;;5036937;28;20053;-61
2023/10/24 02:43:39;;;;;;;6.95;3.42;;;;;;;;;;5008334;28;20069;-61
2023/10/24 02:46:07;;;;;;;7.88;3.65;;;;;;;;;;5024706;28;20041;-61
2023/10/24 02:48:34;;;;;;;7.67;3.93;;;;;;;;;;5036454;28;20057;-62
2023/10/24 02:51:01;;;;;;;11.05;4.35;;;;;;;;;;5019203;28;20041;-62
2023/10/24 02:53:28;;;;;;;7.85;4.35;;;;;;;;;;5006201;28;20064;-62
2023/10/24 02:55:56;;;;;;;7.95;4.05;;;;;;;;;;5031646;28;20049;-62
2023/10/24 02:58:22;;;;;;;7.70;3.55;;;;;;;;;;5019063;28;20061;-62
2023/10/24 03:00:49;;;;;;;7.60;3.53;;;;;;;;;;5029895;28;20046;-63
2023/10/24 03:03:16;;;;;;;6.55;2.50;;;;;;;;;;5023063;28;20050;-62
2023/10/24 03:05:43;;;;;;;3.75;2.00;;;;;;;;;;5018169;28;20097;-62
2023/10/24 03:08:10;;;;;;;3.55;1.85;;;;;;;;;;5036559;28;20204;-62
2023/10/24 03:10:40;;;;;;;4.75;2.35;;;;;;;;;;5021117;28;20069;-62
2023/10/24 03:13:08;;;;;;;4.95;1.95;;;;;;;;;;5012167;28;20053;-62
2023/10/24 03:15:35;;;;;;;6.85;2.35;;;;;;;;;;4999386;28;20054;-63
2023/10/24 03:18:03;;;;;;;6.60;1.90;;;;;;;;;;5009258;28;20066;-62
2023/10/24 03:20:29;;;;;;;3.40;1.83;;;;;;;;;;5003496;28;20119;-62
2023/10/24 03:22:56;;;;;;;5.93;2.17;;;;;;;;;;4991471;28;20054;-62
2023/10/24 03:25:24;;;;;;;3.90;1.85;;;;;;;;;;5003106;28;20057;-61
2023/10/24 03:27:52;;;;;;;7.88;2.42;;;;;;;;;;5002119;28;20368;-62
2023/10/24 03:30:20;;;;;;;5.97;2.22;;;;;;;;;;5003052;28;20065;-63
2023/10/24 03:32:47;;;;;;;3.60;2.03;;;;;;;;;;5000338;28;20141;-62
2023/10/24 03:35:14;;;;;;;3.90;2.03;;;;;;;;;;5004929;28;20085;-62
2023/10/24 03:37:41;;;;;;;4.43;1.98;;;;;;;;;;4997534;28;20064;-63
2023/10/24 03:40:09;;;;;;;5.20;2.03;;;;;;;;;;5004003;28;20085;-62
2023/10/24 03:42:36;;;;;;;3.90;1.92;;;;;;;;;;5017312;28;20054;-62
2023/10/24 03:45:03;;;;;;;5.90;2.22;;;;;;;;;;5003443;28;20061;-62
2023/10/24 03:47:33;;;;;;;5.82;2.58;;;;;;;;;;5016229;28;20042;-61
2023/10/24 03:50:00;;;;;;;5.18;2.25;;;;;;;;;;5026236;28;20050;-62
2023/10/24 03:52:27;;;;;;;3.78;2.10;;;;;;;;;;5000082;28;20055;-62
2023/10/24 03:54:54;;;;;;;2.88;1.67;;;;;;;;;;5036137;28;20107;-62
2023/10/24 03:57:20;;;;;;;4.25;1.95;;;;;;;;;;5021321;28;20046;-62
2023/10/24 03:59:47;;;;;;;3.63;1.90;;;;;;;;;;5000355;28;20086;-60
2023/10/24 04:02:16;;;;;;;3.50;1.80;;;;;;;;;;5011732;28;20049;-61
2023/10/24 04:04:44;;;;;;;4.90;1.90;;;;;;;;;;4990779;28;20049;-61
2023/10/24 04:07:10;;;;;;;4.28;2.20;;;;;;;;;;4989501;28;20054;-60
2023/10/24 04:09:37;;;;;;;4.68;2.20;;;;;;;;;;4987011;28;20115;-62
2023/10/24 04:12:05;;;;;;;4.82;2.00;;;;;;;;;;5002497;28;20096;-60
2023/10/24 04:14:32;;;;;;;4.15;1.92;;;;;;;;;;4998415;28;20117;-61
2023/10/24 04:16:58;;;;;;;4.53;2.20;;;;;;;;;;5006798;28;20081;-61
2023/10/24 04:19:25;;;;;;;5.22;2.28;;;;;;;;;;5003491;28;20093;-61
2023/10/24 04:21:53;;;;;;;7.93;2.38;;;;;;;;;;4995133;28;20054;-62
2023/10/24 04:24:20;;;;;;;6.15;2.58;;;;;;;;;;5005226;28;20068;-61
2023/10/24 04:26:46;;;;;;;7.93;2.78;;;;;;;;;;5002262;28;20141;-62
2023/10/24 04:29:13;;;;;;;5.00;2.50;;;;;;;;;;5004464;28;20137;-60
2023/10/24 04:31:39;;;;;;;6.07;2.47;;;;;;;;;;4994603;28;20072;-61
2023/10/24 04:34:06;;;;;;;5.03;2.50;;;;;;;;;;4998457;28;20084;-60
2023/10/24 04:36:33;;;;;;;4.78;2.13;;;;;;;;;;5002516;28;20081;-60
2023/10/24 04:39:01;;;;;;;5.60;2.33;;;;;;;;;;5007085;28;20045;-61
2023/10/24 04:41:28;;;;;;;6.28;2.92;;;;;;;;;;5000638;28;20060;-60
2023/10/24 04:43:54;;;;;;;5.90;2.78;;;;;;;;;;4992102;28;20065;-61
2023/10/24 04:46:21;;;;;;;6.50;2.72;;;;;;;;;;5004941;28;20242;-61
2023/10/24 04:48:48;;;;;;;6.65;3.22;;;;;;;;;;5022926;28;20065;-60
2023/10/24 04:51:14;;;;;;;7.13;2.75;;;;;;;;;;5005217;28;20049;-60
2023/10/24 04:53:41;;;;;;;10.15;3.08;;;;;;;;;;4977534;28;20144;-60
2023/10/24 04:56:09;;;;;;;7.20;3.00;;;;;;;;;;4995427;28;21308;-61
2023/10/24 04:58:36;;;;;;;5.32;2.63;;;;;;;;;;4987330;28;20112;-60
2023/10/24 05:01:03;;;;;;;6.22;2.72;;;;;;;;;;4991517;28;20053;-60
2023/10/24 05:03:29;;;;;;;7.50;2.83;;;;;;;;;;4988866;28;20107;-61
2023/10/24 05:05:56;;;;;;;4.93;2.33;;;;;;;;;;4992882;28;20061;-60
2023/10/24 05:08:23;;;;;;;6.78;2.85;;;;;;;;;;4999735;28;20058;-60
2023/10/24 05:10:50;;;;;;;7.25;2.55;;;;;;;;;;5017901;28;20041;-61
2023/10/24 05:13:18;;;;;;;7.97;2.50;;;;;;;;;;4995194;28;20042;-60
2023/10/24 05:15:45;;;;;;;7.50;3.70;;;;;;;;;;4993184;28;20065;-61
2023/10/24 05:18:12;;;;;;;8.45;3.40;;;;;;;;;;4995661;28;20112;-60
2023/10/24 05:20:39;;;;;;;6.50;2.80;;;;;;;;;;4998059;28;20054;-61
2023/10/24 05:23:06;;;;;;;5.78;2.30;;;;;;;;;;4991455;28;20096;-60
2023/10/24 05:25:32;;;;;;;5.70;2.85;;;;;;;;;;4979326;28;20050;-61
2023/10/24 05:27:59;;;;;;;6.05;2.60;;;;;;;;;;5010175;28;20071;-60
2023/10/24 05:30:27;;;;;;;7.70;3.47;;;;;;;;;;5021530;28;20080;-61
2023/10/24 05:32:54;;;;;;;5.65;2.72;;;;;;;;;;5005916;28;20056;-60
2023/10/24 05:35:21;;;;;;;9.60;2.92;;;;;;;;;;5023432;28;20045;-62
2023/10/24 05:37:48;;;;;;;8.98;3.40;;;;;;;;;;5013351;28;20152;-62
2023/10/24 05:40:18;;;;;;;8.20;3.17;;;;;;;;;;4999648;28;20069;-62
2023/10/24 05:42:45;;;;;;;6.70;3.00;;;;;;;;;;4999041;28;20042;-63
2023/10/24 05:45:11;;;;;;;6.78;3.30;;;;;;;;;;5001864;28;20107;-62
2023/10/24 05:47:40;;;;;;;7.60;3.60;;;;;;;;;;5014200;28;20404;-62
2023/10/24 05:50:13;;;;;;;9.98;4.07;;;;;;;;;;5000335;28;20049;-62
2023/10/24 05:52:40;;;;;;;7.65;3.58;;;;;;;;;;4980145;28;20073;-62
2023/10/24 05:55:07;;;;;;;10.63;4.55;;;;;;;;;;5002791;28;20054;-62
2023/10/24 05:57:35;;;;;;;7.60;3.33;;;;;;;;;;4997775;28;20064;-63
2023/10/24 06:00:02;;;;;;;9.90;3.25;;;;;;;;;;5004201;28;20064;-62
2023/10/24 06:02:29;;;;;;;6.32;3.05;;;;;;;;;;4996734;28;20132;-61
2023/10/24 06:04:57;;;;;;;8.27;3.40;;;;;;;;;;4986575;28;20072;-61
2023/10/24 06:07:24;;;;;;;5.35;2.63;;;;;;;;;;5009417;28;20053;-62
2023/10/24 06:09:54;;;;;;;9.30;4.32;;;;;;;;;;5008758;28;20366;-61
2023/10/24 06:12:21;;;;;;;8.70;3.97;;;;;;;;;;4978077;28;20053;-63
2023/10/24 06:14:47;;;;;;;8.57;3.92;;;;;;;;;;4982337;28;20049;-62
2023/10/24 06:17:17;;;;;;;7.70;3.30;;;;;;;;;;4993247;28;20049;-61
2023/10/24 06:19:45;;;;;;;6.70;3.20;;;;;;;;;;5013767;28;20066;-61
2023/10/24 06:22:13;;;;;;;6.80;3.33;;;;;;;;;;5010794;28;20057;-60
2023/10/24 06:24:39;;;;;;;7.55;3.25;;;;;;;;;;5019892;28;20132;-60
2023/10/24 06:27:09;;;;;;;7.20;3.30;;;;;;;;;;5024664;28;20057;-60
2023/10/24 06:29:35;;;;;;;7.03;3.08;;;;;;;;;;5016944;28;20049;-60
2023/10/24 06:32:02;;;;;;;6.03;3.03;;;;;;;;;;5014474;28;20062;-59
2023/10/24 06:34:29;;;;;;;7.10;3.65;;;;;;;;;;4985607;28;20052;-60
2023/10/24 06:37:09;;;;;;;7.40;3.47;;;;;;;;;;5003642;28;20057;-60
2023/10/24 06:39:48;;;;;;;6.57;2.95;;;;;;;;;;4995643;28;20056;-61
2023/10/24 06:42:16;;;;;;;5.00;2.67;;;;;;;;;;5002447;28;20053;-61
2023/10/24 06:44:52;;;;;;;6.50;3.35;;;;;;;;;;4949143;28;20054;-60
2023/10/24 06:47:18;;;;;;;11.70;4.97;;;;;;;;;;5024769;28;20092;-59
2023/10/24 06:49:45;;;;;;;8.40;4.28;;;;;;;;;;5023914;28;20060;-60
2023/10/24 06:52:12;;;;;;;8.65;4.18;;;;;;;;;;5016411;28;20052;-60
2023/10/24 06:54:39;;;;;;;9.30;3.50;;;;;;;;;;4990513;28;20113;-61
2023/10/24 06:57:07;;;;;;;6.32;3.10;;;;;;;;;;5006701;28;20073;-65
2023/10/24 06:59:37;;;;;;;8.25;4.32;;;;;;;;;;4999482;28;20054;-62
2023/10/24 07:02:04;;;;;;;8.00;3.50;;;;;;;;;;5002244;28;20061;-60
2023/10/24 07:04:31;;;;;;;9.80;3.65;;;;;;;;;;4957012;28;20049;-59
2023/10/24 07:07:00;;;;;;;8.60;4.38;;;;;;;;;;4988878;28;20085;-60
2023/10/24 07:09:27;;;;;;;7.40;3.35;;;;;;;;;;5003347;28;20131;-62
2023/10/24 07:11:59;;;;;;;6.70;3.55;;;;;;;;;;5000401;28;20049;-60
2023/10/24 07:14:28;;;;;;;7.18;3.75;;;;;;;;;;4999316;28;20100;-60
2023/10/24 07:16:54;;;;;;;7.00;3.70;;;;;;;;;;5006711;28;20049;-59
2023/10/24 07:19:22;;;;;;;7.85;3.80;;;;;;;;;;5006281;28;20061;-60
2023/10/24 07:21:48;;;;;;;10.20;3.53;;;;;;;;;;4998110;28;20062;-60
2023/10/24 07:24:18;;;;;;;6.70;2.85;;;;;;;;;;4994150;28;20046;-60
2023/10/24 07:26:44;;;;;;;7.13;2.80;;;;;;;;;;5003603;28;20054;-59
2023/10/24 07:29:13;;;;;;;7.53;2.90;;;;;;;;;;5004853;28;20069;-59
2023/10/24 07:31:41;;;;;;;5.68;2.80;;;;;;;;;;5015851;28;20050;-61
2023/10/24 07:34:07;;;;;;;5.57;2.70;;;;;;;;;;5024820;28;20124;-59
2023/10/24 07:36:35;;;;;;;7.90;2.90;;;;;;;;;;5040322;28;20053;-60
2023/10/24 07:39:05;;;;;;;4.10;2.30;;;;;;;;;;5040451;28;20138;-61
2023/10/24 07:41:34;;;;;;;6.05;2.65;;;;;;;;;;5019268;28;20037;-61
2023/10/24 07:44:17;;;;;;;;;;;;;;;;;;;;;
2023/10/24 07:46:46;;;;;;;8.23;3.80;;;;;;;;;;4991967;28;20077;-60
2023/10/24 07:49:13;;;;;;;6.90;3.03;;;;;;;;;;5003360;28;20062;-60
2023/10/24 07:51:46;;;;;;;6.78;2.97;;;;;;;;;;4997735;28;20061;-61
2023/10/24 07:54:19;;;;;;;7.43;2.70;;;;;;;;;;4989448;28;20063;-60
2023/10/24 07:56:48;;;;;;;6.30;2.92;;;;;;;;;;5004032;28;20077;-61
2023/10/24 07:59:24;;;;;;;;;;;;;;;;;;5005891;28;20052;-61
2023/10/24 08:02:13;;;;;;;9.00;3.40;;;;;;;;;;4997374;28;20000;-60
2023/10/24 08:04:40;;;;;;;8.60;3.60;;;;;;;;;;4985883;28;20168;-62
2023/10/24 08:07:07;;;;;;;8.30;3.20;;;;;;;;;;4983694;28;20566;-61
2023/10/24 08:09:42;;;;;;;9.27;4.20;;;;;;;;;;5004740;28;20038;-61
2023/10/24 08:12:13;;;;;;;10.25;3.53;;;;;;;;;;5005627;28;20058;-61
2023/10/24 08:14:40;;;;;;;7.70;3.35;;;;;;;;;;4984771;28;20046;-61
2023/10/24 08:17:07;;;;;;;6.70;3.03;;;;;;;;;;5005319;28;20054;-60
2023/10/24 08:19:37;;;;;;;7.13;3.53;;;;;;;;;;4996344;28;20057;-59
2023/10/24 08:22:08;;;;;;;7.47;3.35;;;;;;;;;;5004818;28;20068;-61
2023/10/24 08:24:35;;;;;;;11.25;3.70;;;;;;;;;;4985298;28;20115;-60
2023/10/24 08:27:04;;;;;;;8.75;3.70;;;;;;;;;;5005472;28;20076;-60
2023/10/24 08:29:31;;;;;;;6.78;3.30;;;;;;;;;;5002885;28;20061;-61
2023/10/24 08:31:58;;;;;;;6.70;3.17;;;;;;;;;;5001330;28;20069;-60
2023/10/24 08:34:25;;;;;;;7.63;3.33;;;;;;;;;;5002357;28;20069;-59
2023/10/24 08:36:53;;;;;;;7.43;3.55;;;;;;;;;;5035662;28;20053;-61
2023/10/24 08:39:21;;;;;;;8.95;3.95;;;;;;;;;;5004146;28;20045;-60
2023/10/24 08:41:49;;;;;;;8.13;3.65;;;;;;;;;;4993012;28;20049;-60
2023/10/24 08:44:18;;;;;;;7.65;3.67;;;;;;;;;;5007977;28;20069;-62
2023/10/24 08:46:46;;;;;;;9.05;3.88;;;;;;;;;;5006495;28;20049;-59
2023/10/24 08:49:17;;;;;;;8.73;3.88;;;;;;;;;;5005662;28;20053;-60
2023/10/24 08:51:45;;;;;;;9.15;3.55;;;;;;;;;;5028949;28;20050;-60
2023/10/24 08:54:14;;;;;;;7.97;3.63;;;;;;;;;;4997959;28;20062;-60
2023/10/24 08:56:42;;;;;;;10.85;4.28;;;;;;;;;;4999979;28;20153;-60
2023/10/24 08:59:10;;;;;;;7.32;3.58;;;;;;;;;;5032702;28;20069;-60
2023/10/24 09:01:39;;;;;;;8.35;3.85;;;;;;;;;;4995045;28;20165;-59
2023/10/24 09:04:06;;;;;;;;;;;;;;;;;;4987942;28;20077;-60
2023/10/24 09:06:35;;;;;;;8.60;3.38;;;;;;;;;;5001812;28;19925;-60
2023/10/24 09:09:01;;;;;;;;;;;;;;;;;;5005117;28;20066;-60
2023/10/24 09:11:56;;;;;;;9.55;4.13;;;;;;;;;;4998792;28;19928;-60
2023/10/24 09:14:26;;;;;;;8.10;3.17;;;;;;;;;;4989345;28;20050;-60
2023/10/24 09:17:00;;;;;;;11.10;3.80;;;;;;;;;;5001662;28;20127;-60
2023/10/24 09:19:28;;;;;;;8.70;3.53;;;;;;;;;;5003848;28;20069;-63
2023/10/24 09:21:57;;;;;;;7.63;3.67;;;;;;;;;;5015393;28;20140;-60
2023/10/24 09:24:27;;;;;;;8.85;3.83;;;;;;;;;;4985466;28;20150;-60
2023/10/24 09:26:59;;;;;;;7.90;3.58;;;;;;;;;;5002508;28;20092;-60
2023/10/24 09:29:29;;;;;;;8.10;3.78;;;;;;;;;;5001361;28;20115;-59
2023/10/24 09:31:58;;;;;;;7.18;3.60;;;;;;;;;;4998497;28;20992;-59
2023/10/24 09:34:26;;;;;;;5.72;2.95;;;;;;;;;;4993106;28;20061;-59
2023/10/24 09:36:54;;;;;;;6.90;3.53;;;;;;;;;;5002114;28;20045;-60
2023/10/24 09:39:21;;;;;;;9.60;3.47;;;;;;;;;;4998926;28;20058;-60
2023/10/24 09:41:48;;;;;;;7.40;3.33;;;;;;;;;;4992327;28;20057;-60
2023/10/24 09:44:17;;;;;;;9.98;3.47;;;;;;;;;;4989153;28;20080;-60
2023/10/24 09:46:45;;;;;;;11.13;3.58;;;;;;;;;;5005638;28;20053;-59
2023/10/24 09:49:16;;;;;;;9.45;3.50;;;;;;;;;;5029922;28;20038;-60
2023/10/24 09:51:43;;;;;;;6.47;3.40;;;;;;;;;;5014391;28;20103;-60
2023/10/24 09:54:11;;;;;;;6.53;3.28;;;;;;;;;;4988112;28;20057;-60
2023/10/24 09:56:39;;;;;;;10.30;3.60;;;;;;;;;;5038134;28;20057;-61
2023/10/24 09:59:07;;;;;;;8.38;3.70;;;;;;;;;;5022184;28;20063;-60
2023/10/24 10:01:39;;;;;;;5.72;2.95;;;;;;;;;;5018189;28;20049;-59
2023/10/24 10:04:06;;;;;;;11.00;4.55;;;;;;;;;;4992445;28;20120;-60
2023/10/24 10:06:34;;;;;;;11.45;4.78;;;;;;;;;;5000548;28;20045;-60
2023/10/24 10:09:01;;;;;;;8.93;3.88;;;;;;;;;;5001767;28;20167;-60
2023/10/24 10:11:28;;;;;;;10.00;3.47;;;;;;;;;;4998135;28;20077;-59
2023/10/24 10:13:57;;;;;;;6.65;3.33;;;;;;;;;;4972012;28;20053;-60
2023/10/24 10:16:34;;;;;;;6.20;2.63;;;;;;;;;;5030693;28;20057;-61
2023/10/24 10:19:23;;;;;;;6.83;2.90;;;;;;;;;;5022296;28;20049;-61
2023/10/24 10:22:01;;;;;;;7.80;3.10;;;;;;;;;;5016796;28;20061;-61
2023/10/24 10:24:55;;;;;;;5.45;2.67;;;;;;;;;;5017909;28;20068;-60
2023/10/24 10:27:31;;;;;;;7.43;3.05;;;;;;;;;;5026879;28;20064;-61
2023/10/24 10:30:13;;;;;;;8.95;3.65;;;;;;;;;;5022707;28;20064;-61
2023/10/24 10:32:49;;;;;;;8.73;3.40;;;;;;;;;;5021641;28;20063;-59
2023/10/24 10:35:19;;;;;;;6.25;2.58;;;;;;;;;;5028187;28;20096;-60
2023/10/24 10:38:02;;;;;;;7.18;2.42;;;;;;;;;;5019103;28;20045;-60
2023/10/24 10:40:30;;;;;;;8.23;2.47;;;;;;;;;;5004589;28;20412;-60
2023/10/24 10:43:00;;;;;;;5.90;2.35;;;;;;;;;;4983289;28;20115;-60
2023/10/24 10:45:28;;;;;;;5.07;2.58;;;;;;;;;;4998868;28;20092;-61
2023/10/24 10:47:59;;;;;;;7.82;2.60;;;;;;;;;;5014625;28;20065;-60
2023/10/24 10:50:32;;;;;;;9.85;2.60;;;;;;;;;;5022720;28;20053;-60
2023/10/24 10:53:08;;;;;;;4.90;2.35;;;;;;;;;;5029141;28;20060;-61
2023/10/24 10:55:52;;;;;;;7.88;2.58;;;;;;;;;;4998541;28;20061;-61
2023/10/24 10:58:24;;;;;;;5.70;2.42;;;;;;;;;;5020617;28;20057;-61
2023/10/24 11:01:02;;;;;;;5.63;2.40;;;;;;;;;;4983596;28;20078;-61
2023/10/24 11:03:44;;;;;;;5.32;2.47;;;;;;;;;;4985599;28;20069;-61
2023/10/24 11:06:15;;;;;;;6.47;2.80;;;;;;;;;;5029769;28;20121;-60
2023/10/24 11:08:44;;;;;;;10.07;2.63;;;;;;;;;;5002531;28;20056;-61
2023/10/24 11:11:11;;;;;;;5.43;2.45;;;;;;;;;;5003761;28;20132;-60
2023/10/24 11:13:41;;;;;;;5.22;2.55;;;;;;;;;;4960980;28;20050;-60
2023/10/24 11:16:10;;;;;;;9.07;2.65;;;;;;;;;;5004490;28;20062;-60
2023/10/24 11:18:40;;;;;;;4.60;2.35;;;;;;;;;;4954545;28;20129;-59
2023/10/24 11:21:12;;;;;;;5.47;2.55;;;;;;;;;;5018609;28;20057;-60
2023/10/24 11:23:44;;;;;;;7.85;2.70;;;;;;;;;;5001627;28;20042;-58
2023/10/24 11:26:15;;;;;;;4.70;2.42;;;;;;;;;;4959604;28;20064;-60
2023/10/24 11:28:43;;;;;;;6.15;2.47;;;;;;;;;;4996137;28;20064;-61
2023/10/24 11:31:21;;;;;;;6.37;2.50;;;;;;;;;;5003405;28;20065;-61
2023/10/24 11:33:48;;;;;;;5.53;2.42;;;;;;;;;;5001892;28;20133;-60
2023/10/24 11:36:15;;;;;;;4.32;2.08;;;;;;;;;;4984196;28;20058;-61
2023/10/24 11:38:46;;;;;;;8.50;2.70;;;;;;;;;;5003784;28;20524;-62
2023/10/24 11:41:13;;;;;;;4.60;2.40;;;;;;;;;;4997951;28;20153;-62
2023/10/24 11:43:39;;;;;;;9.13;2.88;;;;;;;;;;5017608;28;20137;-62
2023/10/24 11:46:07;;;;;;;7.38;2.50;;;;;;;;;;4988081;28;20107;-62
2023/10/24 11:48:33;;;;;;;6.72;2.90;;;;;;;;;;5000438;28;20065;-62
2023/10/24 11:51:03;;;;;;;7.95;3.15;;;;;;;;;;5022607;28;20049;-62
2023/10/24 11:53:30;;;;;;;10.00;3.70;;;;;;;;;;5040488;28;20056;-62
2023/10/24 11:55:59;;;;;;;5.97;2.85;;;;;;;;;;5006176;28;20049;-62
2023/10/24 11:58:32;;;;;;;5.07;2.30;;;;;;;;;;5014462;28;20135;-62
2023/10/24 12:01:00;;;;;;;4.32;2.22;;;;;;;;;;5003540;28;20058;-61
2023/10/24 12:03:27;;;;;;;8.02;2.50;;;;;;;;;;4994388;28;20065;-61
2023/10/24 12:05:55;;;;;;;4.75;2.30;;;;;;;;;;4970680;28;20057;-61
2023/10/24 12:08:26;;;;;;;3.88;1.98;;;;;;;;;;5011945;28;20061;-63
2023/10/24 12:10:52;;;;;;;5.47;2.15;;;;;;;;;;5019208;28;20057;-62
2023/10/24 12:13:22;;;;;;;3.25;1.65;;;;;;;;;;5036968;28;20717;-62
2023/10/24 12:15:49;;;;;;;5.13;2.22;;;;;;;;;;4996698;28;20065;-62
2023/10/24 12:18:16;;;;;;;4.93;2.08;;;;;;;;;;5017075;28;20053;-62
2023/10/24 12:20:43;;;;;;;3.53;1.75;;;;;;;;;;5023585;28;20106;-62
2023/10/24 12:23:10;;;;;;;3.70;1.65;;;;;;;;;;5023221;28;20060;-62
2023/10/24 12:25:37;;;;;;;7.10;1.83;;;;;;;;;;5010161;28;20069;-63
2023/10/24 12:28:07;;;;;;;4.93;1.65;;;;;;;;;;5024097;28;20054;-60
2023/10/24 12:30:35;;;;;;;3.50;1.90;;;;;;;;;;5035135;28;20053;-60
2023/10/24 12:33:02;;;;;;;3.47;1.50;;;;;;;;;;5022292;28;20119;-60
2023/10/24 12:35:29;;;;;;;2.63;1.58;;;;;;;;;;4979266;28;20124;-61
2023/10/24 12:37:58;;;;;;;3.05;1.50;;;;;;;;;;4996923;28;20057;-61
2023/10/24 12:40:25;;;;;;;5.93;1.70;;;;;;;;;;4989853;28;20435;-60
2023/10/24 12:42:53;;;;;;;3.45;1.35;;;;;;;;;;4983318;28;20062;-61
2023/10/24 12:45:21;;;;;;;5.35;1.38;;;;;;;;;;4967569;28;20047;-61
2023/10/24 12:47:51;;;;;;;2.92;1.35;;;;;;;;;;4981022;28;20050;-62
2023/10/24 12:50:18;;;;;;;4.18;1.40;;;;;;;;;;4988592;28;20205;-60
2023/10/24 12:52:45;;;;;;;3.13;1.27;;;;;;;;;;4997881;28;20065;-60
2023/10/24 12:55:12;;;;;;;3.08;1.50;;;;;;;;;;4999627;28;20112;-61
2023/10/24 12:57:37;;;;;;;3.10;1.30;;;;;;;;;;4992248;28;20062;-60
2023/10/24 13:00:14;;;;;;;2.00;1.20;;;;;;;;;;5001990;28;20050;-61
2023/10/24 13:02:41;;;;;;;4.30;1.55;;;;;;;;;;4997250;28;20284;-61
2023/10/24 13:05:12;;;;;;;3.28;1.50;;;;;;;;;;4979665;28;20045;-61
2023/10/24 13:07:39;;;;;;;3.55;1.42;;;;;;;;;;5009431;28;20063;-61
2023/10/24 13:10:09;;;;;;;6.25;1.67;;;;;;;;;;5019971;28;20049;-61
2023/10/24 13:12:38;;;;;;;3.63;1.58;;;;;;;;;;5020480;28;20081;-60
2023/10/24 13:15:11;;;;;;;2.85;1.45;;;;;;;;;;5007131;28;20050;-61
2023/10/24 13:17:37;;;;;;;3.05;1.38;;;;;;;;;;5015903;28;20164;-61
2023/10/24 13:20:08;;;;;;;3.00;1.40;;;;;;;;;;5019598;28;20054;-60
2023/10/24 13:22:36;;;;;;;2.95;1.52;;;;;;;;;;5015814;28;20053;-60
2023/10/24 13:25:03;;;;;;;5.68;2.63;;;;;;;;;;5020026;28;20057;-61
2023/10/24 13:27:32;;;;;;;5.13;1.90;;;;;;;;;;5023439;28;20068;-60
2023/10/24 13:29:59;;;;;;;3.90;1.70;;;;;;;;;;5012482;28;20120;-60
2023/10/24 13:32:27;;;;;;;2.70;1.58;;;;;;;;;;4996027;28;20058;-60
2023/10/24 13:34:54;;;;;;;5.50;1.93;;;;;;;;;;5001116;28;20042;-60
2023/10/24 13:37:23;;;;;;;4.45;1.88;;;;;;;;;;4978665;28;20311;-60
2023/10/24 13:39:52;;;;;;;3.80;1.83;;;;;;;;;;4996586;28;20042;-59
2023/10/24 13:42:18;;;;;;;2.95;1.40;;;;;;;;;;4990309;28;20065;-60
2023/10/24 13:44:45;;;;;;;2.05;1.38;;;;;;;;;;4986119;28;21729;-60
2023/10/24 13:47:12;;;;;;;2.88;1.60;;;;;;;;;;4983514;28;20069;-60
2023/10/24 13:49:38;;;;;;;3.58;1.58;;;;;;;;;;5002559;28;20172;-60
2023/10/24 13:52:06;;;;;;;3.35;1.60;;;;;;;;;;5032434;28;20081;-61
2023/10/24 13:54:33;;;;;;;3.88;1.55;;;;;;;;;;4998039;28;20084;-60
2023/10/24 13:57:02;;;;;;;3.67;1.50;;;;;;;;;;4995288;28;20180;-60
2023/10/24 13:59:30;;;;;;;2.78;1.50;;;;;;;;;;5003219;28;20053;-60
2023/10/24 14:01:56;;;;;;;2.20;1.27;;;;;;;;;;5019756;28;20113;-59
2023/10/24 14:04:23;;;;;;;3.38;1.10;;;;;;;;;;4996531;28;20062;-60
2023/10/24 14:06:50;;;;;;;4.43;1.20;;;;;;;;;;4943885;28;20060;-60
2023/10/24 14:09:17;;;;;;;3.38;1.40;;;;;;;;;;5009399;28;20050;-60
2023/10/24 14:11:43;;;;;;;2.22;1.20;;;;;;;;;;5001011;28;20053;-60
2023/10/24 14:14:15;;;;;;;4.68;1.33;;;;;;;;;;5013572;28;20092;-61
2023/10/24 14:16:45;;;;;;;1.85;1.08;;;;;;;;;;4994912;28;20053;-60
2023/10/24 14:19:12;;;;;;;3.78;1.30;;;;;;;;;;5020730;28;20081;-59
2023/10/24 14:21:39;;;;;;;3.92;1.30;;;;;;;;;;5037273;28;20049;-60
2023/10/24 14:24:10;;;;;;;3.08;1.10;;;;;;;;;;5035717;28;20080;-60
2023/10/24 14:26:38;;;;;;;2.25;1.17;;;;;;;;;;4936927;28;20082;-60
2023/10/24 14:29:05;;;;;;;4.60;1.40;;;;;;;;;;4974816;28;20058;-60
2023/10/24 14:31:33;;;;;;;2.28;0.98;;;;;;;;;;4995653;28;20638;-59
2023/10/24 14:34:00;;;;;;;1.60;1.02;;;;;;;;;;5000477;28;20061;-59
2023/10/24 14:36:29;;;;;;;9.55;2.00;;;;;;;;;;4976486;28;20059;-59
2023/10/24 14:38:58;;;;;;;;;;;;;;;;;;5011524;28;20084;-60
2023/10/24 14:41:24;;;;;;;3.17;1.08;;;;;;;;;;5001579;28;19925;-60
2023/10/24 14:43:51;;;;;;;3.42;1.35;;;;;;;;;;5034929;28;20144;-60
2023/10/24 14:46:18;;;;;;;2.05;1.10;;;;;;;;;;4964498;28;20046;-60
2023/10/24 14:48:50;;;;;;;3.55;1.17;;;;;;;;;;5000299;28;20050;-60
2023/10/24 14:51:16;;;;;;;3.13;1.20;;;;;;;;;;4999124;28;20061;-60
2023/10/24 14:53:46;;;;;;;1.42;0.88;;;;;;;;;;5001924;28;20050;-60
2023/10/24 14:56:13;;;;;;;1.70;0.90;;;;;;;;;;4990973;28;20058;-60
2023/10/24 14:58:39;;;;;;;3.17;1.13;;;;;;;;;;5021044;28;20042;-60
2023/10/24 15:01:07;;;;;;;3.00;1.20;;;;;;;;;;5000748;28;20062;-60
2023/10/24 15:03:34;;;;;;;2.50;1.10;;;;;;;;;;4989897;28;20058;-60
2023/10/24 15:06:08;;;;;;;1.90;1.00;;;;;;;;;;4981564;28;20059;-60
2023/10/24 15:08:34;;;;;;;6.13;1.48;;;;;;;;;;5015743;28;20077;-60
2023/10/24 15:11:01;;;;;;;2.60;1.10;;;;;;;;;;5038476;28;20073;-60
2023/10/24 15:13:28;;;;;;;2.65;1.17;;;;;;;;;;5024552;28;20065;-61
2023/10/24 15:15:57;;;;;;;3.05;1.38;;;;;;;;;;4995398;28;20061;-59
2023/10/24 15:18:23;;;;;;;4.03;1.58;;;;;;;;;;5020833;28;20057;-59
2023/10/24 15:20:50;;;;;;;8.45;3.38;;;;;;;;;;5039134;28;20041;-59
2023/10/24 15:23:18;;;;;;;14.93;6.93;;;;;;;;;;5010892;28;20057;-58
2023/10/24 15:25:45;;;;;;;7.57;1.88;;;;;;;;;;5010667;28;20174;-60
2023/10/24 15:28:12;;;;;;;4.32;1.65;;;;;;;;;;5034662;28;20054;-59
2023/10/24 15:30:41;;;;;;;2.35;1.05;;;;;;;;;;5000837;28;20050;-60
2023/10/24 15:33:08;;;;;;;4.00;1.50;;;;;;;;;;5005517;28;20100;-61
2023/10/24 15:35:35;;;;;;;4.32;2.10;;;;;;;;;;5014796;28;20062;-62
2023/10/24 15:38:02;;;;;;;2.78;1.45;;;;;;;;;;5000799;28;20086;-61
2023/10/24 15:40:31;;;;;;;5.05;2.20;;;;;;;;;;4999610;28;20041;-61
2023/10/24 15:42:57;;;;;;;18.35;10.65;;;;;;;;;;5003420;28;20062;-61
2023/10/24 15:45:24;;;;;;;3.42;1.40;;;;;;;;;;5006628;28;20054;-60
2023/10/24 15:47:55;;;;;;;4.40;1.52;;;;;;;;;;5010255;28;20065;-61
2023/10/24 15:50:22;;;;;;;5.85;1.50;;;;;;;;;;5032848;28;20057;-61
2023/10/24 15:52:48;;;;;;;5.47;1.52;;;;;;;;;;5021674;28;20053;-61
2023/10/24 15:55:19;;;;;;;2.95;1.23;;;;;;;;;;5023382;28;20068;-61
2023/10/24 15:57:47;;;;;;;2.80;1.13;;;;;;;;;;5007463;28;20057;-62
2023/10/24 16:00:15;;;;;;;3.53;1.60;;;;;;;;;;5014389;28;20487;-61
2023/10/24 16:02:42;;;;;;;2.95;1.15;;;;;;;;;;5016730;28;20058;-61
2023/10/24 16:05:09;;;;;;;4.35;1.58;;;;;;;;;;4992796;28;20157;-60
2023/10/24 16:07:35;;;;;;;2.92;1.33;;;;;;;;;;4980459;28;20057;-61
2023/10/24 16:10:06;;;;;;;4.00;1.50;;;;;;;;;;5014754;28;20066;-62
2023/10/24 16:12:33;;;;;;;2.15;1.10;;;;;;;;;;4982162;28;20952;-60
2023/10/24 16:15:02;;;;;;;2.30;1.17;;;;;;;;;;5003570;28;20066;-61
2023/10/24 16:17:29;;;;;;;5.28;1.33;;;;;;;;;;4992434;28;20111;-61
2023/10/24 16:19:56;;;;;;;4.13;1.50;;;;;;;;;;4987172;28;20058;-61
2023/10/24 16:22:24;;;;;;;3.67;1.70;;;;;;;;;;4991081;28;20053;-61
2023/10/24 16:24:51;;;;;;;3.50;1.30;;;;;;;;;;4997196;28;20062;-61
2023/10/24 16:27:21;;;;;;;2.92;1.45;;;;;;;;;;4997279;28;20344;-61
2023/10/24 16:29:48;;;;;;;3.80;1.30;;;;;;;;;;5014933;28;20054;-61
2023/10/24 16:32:16;;;;;;;6.53;1.85;;;;;;;;;;4992360;28;20066;-59
2023/10/24 16:34:43;;;;;;;2.92;1.70;;;;;;;;;;5010781;28;20050;-61
2023/10/24 16:37:09;;;;;;;2.65;1.40;;;;;;;;;;4968273;28;20054;-60
2023/10/24 16:39:36;;;;;;;6.50;1.95;;;;;;;;;;4987446;28;20053;-59
2023/10/24 16:42:06;;;;;;;4.95;1.80;;;;;;;;;;4986130;28;20158;-61
2023/10/24 16:44:33;;;;;;;4.55;2.00;;;;;;;;;;4996792;28;20089;-60
2023/10/24 16:47:00;;;;;;;4.60;1.77;;;;;;;;;;4963208;28;20116;-59
2023/10/24 16:49:29;;;;;;;5.22;1.90;;;;;;;;;;5002363;28;20054;-59
2023/10/24 16:51:56;;;;;;;5.80;2.05;;;;;;;;;;4995532;28;20133;-60
2023/10/24 16:54:22;;;;;;;5.18;1.83;;;;;;;;;;4981211;28;20152;-59